Time;durP1;ratioP1;P1;durP2;ratioP2;P2;SDS_P1;SDS_P2;PMS_P1;PMS_P2;Temp;Humidity;BMP_temperature;BMP_pressure;BME280_temperature;BME280_humidity;BME280_pressure;Samples;Min_cycle;Max_cycle;Signal;HPM_P1;HPM_P2
2023/09/05 00:00:14;;;;;;;11.48;4.63;;;;;;;;;;5003519;28;20045;-68
2023/09/05 00:02:40;;;;;;;14.02;4.32;;;;;;;;;;5019801;28;20079;-68
2023/09/05 00:05:07;;;;;;;11.18;4.07;;;;;;;;;;5019293;28;20037;-68
2023/09/05 00:07:35;;;;;;;7.93;4.40;;;;;;;;;;5019528;28;20041;-68
2023/09/05 00:10:03;;;;;;;9.38;4.78;;;;;;;;;;5019587;28;20037;-68
2023/09/05 00:12:29;;;;;;;8.60;3.95;;;;;;;;;;5052255;28;20140;-68
2023/09/05 00:14:55;;;;;;;11.57;4.65;;;;;;;;;;5036415;28;20164;-68
2023/09/05 00:17:21;;;;;;;9.88;4.70;;;;;;;;;;5020271;28;20037;-69
2023/09/05 00:19:47;;;;;;;13.07;4.53;;;;;;;;;;5020144;28;20045;-71
2023/09/05 00:22:13;;;;;;;13.65;5.03;;;;;;;;;;5037006;28;20029;-68
2023/09/05 00:24:39;;;;;;;9.52;4.20;;;;;;;;;;5020122;28;20029;-69
2023/09/05 00:27:10;;;;;;;9.68;4.10;;;;;;;;;;5036570;28;20467;-68
2023/09/05 00:29:39;;;;;;;8.30;4.57;;;;;;;;;;5020420;28;20033;-67
2023/09/05 00:32:05;;;;;;;15.98;4.90;;;;;;;;;;5053827;28;20476;-67
2023/09/05 00:34:32;;;;;;;11.45;4.85;;;;;;;;;;5037748;28;20134;-68
2023/09/05 00:37:00;;;;;;;13.02;4.50;;;;;;;;;;5036302;28;20147;-67
2023/09/05 00:39:30;;;;;;;8.93;4.57;;;;;;;;;;5020365;28;20106;-67
2023/09/05 00:41:56;;;;;;;15.43;4.50;;;;;;;;;;5053184;28;20037;-67
2023/09/05 00:44:25;;;;;;;7.32;4.63;;;;;;;;;;5053786;28;20136;-67
2023/09/05 00:46:55;;;;;;;12.02;4.75;;;;;;;;;;5020227;28;20048;-67
2023/09/05 00:49:23;;;;;;;12.65;4.40;;;;;;;;;;5053886;28;20041;-69
2023/09/05 00:51:50;;;;;;;15.43;4.97;;;;;;;;;;5019870;28;20048;-71
2023/09/05 00:54:17;;;;;;;12.02;5.40;;;;;;;;;;5019961;28;20025;-68
2023/09/05 00:56:44;;;;;;;12.63;5.60;;;;;;;;;;5020193;28;20056;-67
2023/09/05 00:59:10;;;;;;;9.77;5.40;;;;;;;;;;5053242;28;20040;-68
2023/09/05 01:01:37;;;;;;;8.57;5.45;;;;;;;;;;5036309;28;20077;-68
2023/09/05 01:04:03;;;;;;;10.20;5.78;;;;;;;;;;5019620;28;20491;-68
2023/09/05 01:07:04;;;;;;;11.07;5.47;;;;;;;;;;5019636;28;20075;-68
2023/09/05 01:09:30;;;;;;;9.52;5.10;;;;;;;;;;5035734;28;20067;-68
2023/09/05 01:11:58;;;;;;;11.52;5.40;;;;;;;;;;5052912;28;20049;-68
2023/09/05 01:14:23;;;;;;;9.38;4.80;;;;;;;;;;5035718;28;20498;-68
2023/09/05 01:16:50;;;;;;;8.48;4.65;;;;;;;;;;5036172;28;20132;-68
2023/09/05 01:19:17;;;;;;;10.02;5.50;;;;;;;;;;5020519;28;20040;-68
2023/09/05 01:21:57;;;;;;;8.88;4.75;;;;;;;;;;5021650;28;20041;-68
2023/09/05 01:24:24;;;;;;;12.43;4.80;;;;;;;;;;5036531;28;20086;-70
2023/09/05 01:26:51;;;;;;;9.43;4.40;;;;;;;;;;5018344;28;20056;-68
2023/09/05 01:29:25;;;;;;;10.32;4.90;;;;;;;;;;5051432;28;20152;-68
2023/09/05 01:31:52;;;;;;;10.88;4.70;;;;;;;;;;5018138;28;20069;-71
2023/09/05 01:34:19;;;;;;;9.73;4.35;;;;;;;;;;5051920;28;20056;-68
2023/09/05 01:36:45;;;;;;;9.40;4.80;;;;;;;;;;5051020;28;20051;-68
2023/09/05 01:39:12;;;;;;;10.85;4.97;;;;;;;;;;5018225;28;20048;-67
2023/09/05 01:41:38;;;;;;;10.23;4.43;;;;;;;;;;5051085;28;20060;-68
2023/09/05 01:44:04;;;;;;;8.40;4.80;;;;;;;;;;5033785;28;20053;-69
2023/09/05 01:46:29;;;;;;;8.75;4.53;;;;;;;;;;5034031;28;20064;-68
2023/09/05 01:48:56;;;;;;;11.90;4.97;;;;;;;;;;5017459;28;20463;-67
2023/09/05 01:51:22;;;;;;;12.13;5.00;;;;;;;;;;5034135;28;20041;-70
2023/09/05 01:53:49;;;;;;;8.52;4.65;;;;;;;;;;5035262;28;20052;-67
2023/09/05 01:56:14;;;;;;;8.15;4.38;;;;;;;;;;5051718;28;20129;-70
2023/09/05 01:58:40;;;;;;;9.02;5.18;;;;;;;;;;5054213;28;20055;-68
2023/09/05 02:01:05;;;;;;;10.13;5.10;;;;;;;;;;5020836;28;20044;-67
2023/09/05 02:03:31;;;;;;;11.98;4.72;;;;;;;;;;5053824;28;20036;-68
2023/09/05 02:05:57;;;;;;;8.40;4.57;;;;;;;;;;5033710;28;20052;-68
2023/09/05 02:08:23;;;;;;;16.95;4.90;;;;;;;;;;5017079;28;20045;-70
2023/09/05 02:10:48;;;;;;;10.27;4.43;;;;;;;;;;5033829;28;20049;-67
2023/09/05 02:13:14;;;;;;;11.05;4.57;;;;;;;;;;5033652;28;20056;-66
2023/09/05 02:15:42;;;;;;;9.48;4.88;;;;;;;;;;5000535;28;20052;-66
2023/09/05 02:18:10;;;;;;;9.77;4.97;;;;;;;;;;5016916;28;20044;-67
2023/09/05 02:20:37;;;;;;;11.45;5.25;;;;;;;;;;5033457;28;20520;-67
2023/09/05 02:23:03;;;;;;;9.98;5.18;;;;;;;;;;5033688;28;20487;-69
2023/09/05 02:25:30;;;;;;;11.38;4.72;;;;;;;;;;5050066;28;20055;-67
2023/09/05 02:27:57;;;;;;;10.10;4.85;;;;;;;;;;5033753;28;20527;-67
2023/09/05 02:30:24;;;;;;;9.38;4.63;;;;;;;;;;5050258;28;20080;-67
2023/09/05 02:32:53;;;;;;;11.07;4.57;;;;;;;;;;5001038;28;20083;-67
2023/09/05 02:35:24;;;;;;;11.05;5.15;;;;;;;;;;5033566;28;20150;-66
2023/09/05 02:37:53;;;;;;;12.45;4.82;;;;;;;;;;5033841;28;20080;-68
2023/09/05 02:40:19;;;;;;;11.85;4.60;;;;;;;;;;5017737;28;20048;-68
2023/09/05 02:42:47;;;;;;;9.15;4.80;;;;;;;;;;5019478;28;20033;-70
2023/09/05 02:45:13;;;;;;;18.27;4.97;;;;;;;;;;5017718;28;20044;-67
2023/09/05 02:47:39;;;;;;;14.00;5.00;;;;;;;;;;5016876;28;20053;-68
2023/09/05 02:50:05;;;;;;;13.25;4.90;;;;;;;;;;5016872;28;20110;-67
2023/09/05 02:52:32;;;;;;;10.20;5.22;;;;;;;;;;5032498;28;20479;-67
2023/09/05 02:54:57;;;;;;;9.02;4.80;;;;;;;;;;5019232;28;20036;-68
2023/09/05 02:57:23;;;;;;;10.15;5.20;;;;;;;;;;5034980;28;20033;-67
2023/09/05 02:59:53;;;;;;;9.35;5.05;;;;;;;;;;5035543;28;20383;-68
2023/09/05 03:02:21;;;;;;;14.43;5.68;;;;;;;;;;5038285;28;20197;-68
2023/09/05 03:04:51;;;;;;;11.07;4.50;;;;;;;;;;5054423;28;20094;-68
2023/09/05 03:07:18;;;;;;;9.30;4.90;;;;;;;;;;5038055;28;20483;-67
2023/09/05 03:09:44;;;;;;;12.43;4.97;;;;;;;;;;5038220;28;20701;-68
2023/09/05 03:12:11;;;;;;;9.65;5.50;;;;;;;;;;5039478;28;20095;-68
2023/09/05 03:14:37;;;;;;;12.63;5.57;;;;;;;;;;5026337;28;20040;-68
2023/09/05 03:17:04;;;;;;;12.75;6.00;;;;;;;;;;5058443;28;20029;-68
2023/09/05 03:19:32;;;;;;;12.30;5.90;;;;;;;;;;5038274;28;20375;-68
2023/09/05 03:21:58;;;;;;;12.70;5.65;;;;;;;;;;5055472;28;20045;-68
2023/09/05 03:24:25;;;;;;;16.80;6.70;;;;;;;;;;5021533;28;20044;-68
2023/09/05 03:26:50;;;;;;;14.18;7.25;;;;;;;;;;5021563;28;20049;-68
2023/09/05 03:29:16;;;;;;;14.48;6.65;;;;;;;;;;5037756;28;20102;-71
2023/09/05 03:31:43;;;;;;;12.88;7.95;;;;;;;;;;5037363;28;20048;-68
2023/09/05 03:34:10;;;;;;;18.10;8.43;;;;;;;;;;5037701;28;20490;-68
2023/09/05 03:36:36;;;;;;;19.48;8.60;;;;;;;;;;5056273;28;20071;-68
2023/09/05 03:39:02;;;;;;;18.30;8.60;;;;;;;;;;5039859;28;20459;-68
2023/09/05 03:41:28;;;;;;;18.90;9.15;;;;;;;;;;5039887;28;20044;-72
2023/09/05 03:43:54;;;;;;;20.80;9.00;;;;;;;;;;5056315;28;20037;-68
2023/09/05 03:46:20;;;;;;;14.20;8.07;;;;;;;;;;5055999;28;20371;-68
2023/09/05 03:48:49;;;;;;;15.57;6.93;;;;;;;;;;5038739;28;20240;-68
2023/09/05 03:51:15;;;;;;;16.30;6.70;;;;;;;;;;5039574;28;20060;-69
2023/09/05 03:53:41;;;;;;;17.10;6.32;;;;;;;;;;5023115;28;20024;-69
2023/09/05 03:56:08;;;;;;;14.48;6.63;;;;;;;;;;5057220;28;20088;-68
2023/09/05 03:58:37;;;;;;;10.70;6.30;;;;;;;;;;5026737;28;20052;-68
2023/09/05 04:01:03;;;;;;;12.95;6.75;;;;;;;;;;5043439;28;20048;-68
2023/09/05 04:03:33;;;;;;;15.52;7.00;;;;;;;;;;5057530;28;20052;-68
2023/09/05 04:06:00;;;;;;;16.58;6.70;;;;;;;;;;5040064;28;20115;-69
2023/09/05 04:08:29;;;;;;;11.20;6.30;;;;;;;;;;5054450;28;20511;-72
2023/09/05 04:10:59;;;;;;;12.82;6.88;;;;;;;;;;5019946;28;20102;-67
2023/09/05 04:13:25;;;;;;;12.43;5.85;;;;;;;;;;5054071;28;20041;-67
2023/09/05 04:15:52;;;;;;;12.45;6.13;;;;;;;;;;5053390;28;20123;-66
2023/09/05 04:18:18;;;;;;;15.43;6.00;;;;;;;;;;5054835;28;20032;-67
2023/09/05 04:20:45;;;;;;;13.60;6.18;;;;;;;;;;5036906;28;20040;-66
2023/09/05 04:23:20;;;;;;;13.48;6.10;;;;;;;;;;5053253;28;20043;-68
2023/09/05 04:25:57;;;;;;;16.27;6.32;;;;;;;;;;5053923;28;20368;-68
2023/09/05 04:28:24;;;;;;;11.40;6.40;;;;;;;;;;5036894;28;20051;-66
2023/09/05 04:30:51;;;;;;;15.63;6.25;;;;;;;;;;5036380;28;20037;-67
2023/09/05 04:33:18;;;;;;;13.32;6.43;;;;;;;;;;5053352;28;20069;-67
2023/09/05 04:35:44;;;;;;;13.93;6.85;;;;;;;;;;5020581;28;20081;-66
2023/09/05 04:38:09;;;;;;;15.38;6.18;;;;;;;;;;5037834;28;20037;-65
2023/09/05 04:40:35;;;;;;;14.85;5.97;;;;;;;;;;5053545;28;20037;-66
2023/09/05 04:43:03;;;;;;;10.82;5.88;;;;;;;;;;5053292;28;20094;-65
2023/09/05 04:45:29;;;;;;;11.75;6.57;;;;;;;;;;5037033;28;20025;-66
2023/09/05 04:47:54;;;;;;;10.82;5.15;;;;;;;;;;5036638;28;20126;-70
2023/09/05 04:50:20;;;;;;;10.90;6.15;;;;;;;;;;5021428;28;20031;-68
2023/09/05 04:52:47;;;;;;;11.25;5.57;;;;;;;;;;5056072;28;20059;-68
2023/09/05 04:55:13;;;;;;;12.25;5.15;;;;;;;;;;5055730;28;20037;-68
2023/09/05 04:57:42;;;;;;;12.38;5.32;;;;;;;;;;5037668;28;20044;-67
2023/09/05 05:00:10;;;;;;;16.70;5.88;;;;;;;;;;5020199;28;20135;-66
2023/09/05 05:02:36;;;;;;;16.17;5.47;;;;;;;;;;5026322;28;20456;-66
2023/09/05 05:05:01;;;;;;;12.93;5.43;;;;;;;;;;5030692;28;20040;-67
2023/09/05 05:07:30;;;;;;;11.00;5.60;;;;;;;;;;5032340;28;20047;-67
2023/09/05 05:09:56;;;;;;;11.40;5.55;;;;;;;;;;5049589;28;20041;-66
2023/09/05 05:12:22;;;;;;;11.00;5.40;;;;;;;;;;5048482;28;20049;-68
2023/09/05 05:14:49;;;;;;;11.85;4.88;;;;;;;;;;5052170;28;20052;-66
2023/09/05 05:17:16;;;;;;;12.00;4.82;;;;;;;;;;5041083;28;20128;-68
2023/09/05 05:19:42;;;;;;;11.15;4.80;;;;;;;;;;5050889;28;20032;-68
2023/09/05 05:22:08;;;;;;;9.30;4.13;;;;;;;;;;5051202;28;20746;-68
2023/09/05 05:24:34;;;;;;;8.88;3.60;;;;;;;;;;5050990;28;20069;-68
2023/09/05 05:27:00;;;;;;;8.75;4.30;;;;;;;;;;5050108;28;20106;-68
2023/09/05 05:29:32;;;;;;;11.85;3.70;;;;;;;;;;5016119;28;20032;-68
2023/09/05 05:31:58;;;;;;;7.10;3.83;;;;;;;;;;5016442;28;20066;-68
2023/09/05 05:34:25;;;;;;;8.73;3.75;;;;;;;;;;5000073;28;20036;-67
2023/09/05 05:36:51;;;;;;;6.82;3.75;;;;;;;;;;5029990;28;20052;-67
2023/09/05 05:39:23;;;;;;;8.88;3.28;;;;;;;;;;5012476;28;20042;-68
2023/09/05 05:41:50;;;;;;;13.32;3.10;;;;;;;;;;5013198;28;20140;-67
2023/09/05 05:44:16;;;;;;;6.22;2.50;;;;;;;;;;5013157;28;20044;-67
2023/09/05 05:46:43;;;;;;;5.43;2.80;;;;;;;;;;5031674;28;20063;-67
2023/09/05 05:49:10;;;;;;;8.32;2.97;;;;;;;;;;5037968;28;20048;-67
2023/09/05 05:51:37;;;;;;;7.15;2.50;;;;;;;;;;5019370;28;20049;-66
2023/09/05 05:54:07;;;;;;;7.30;2.50;;;;;;;;;;5036157;28;20574;-66
2023/09/05 05:56:33;;;;;;;5.68;2.92;;;;;;;;;;5003312;28;20408;-67
2023/09/05 05:58:58;;;;;;;6.88;2.78;;;;;;;;;;5005904;28;20128;-66
2023/09/05 06:01:24;;;;;;;5.18;2.47;;;;;;;;;;5048146;28;20147;-66
2023/09/05 06:03:50;;;;;;;3.63;2.20;;;;;;;;;;5016041;28;20064;-67
2023/09/05 06:06:16;;;;;;;7.95;2.45;;;;;;;;;;5006652;28;20739;-66
2023/09/05 06:08:41;;;;;;;7.05;2.75;;;;;;;;;;5008693;28;20028;-67
2023/09/05 06:11:07;;;;;;;5.97;2.30;;;;;;;;;;5022528;28;20128;-67
2023/09/05 06:13:34;;;;;;;3.50;2.30;;;;;;;;;;5041361;28;20094;-67
2023/09/05 06:16:00;;;;;;;7.70;2.65;;;;;;;;;;5039552;28;20384;-66
2023/09/05 06:18:27;;;;;;;8.77;2.60;;;;;;;;;;5038856;28;20033;-66
2023/09/05 06:20:53;;;;;;;8.07;3.17;;;;;;;;;;5040831;28;20097;-67
2023/09/05 06:23:19;;;;;;;9.38;3.28;;;;;;;;;;5029263;28;20029;-67
2023/09/05 06:25:44;;;;;;;10.23;2.88;;;;;;;;;;5041302;28;20186;-66
2023/09/05 06:28:10;;;;;;;8.95;3.38;;;;;;;;;;5049946;28;20036;-68
2023/09/05 06:30:35;;;;;;;8.77;3.05;;;;;;;;;;5014075;28;20039;-69
2023/09/05 06:33:01;;;;;;;5.82;2.80;;;;;;;;;;5030576;28;20112;-69
2023/09/05 06:35:27;;;;;;;8.75;3.10;;;;;;;;;;5023862;28;20044;-68
2023/09/05 06:37:56;;;;;;;9.52;3.13;;;;;;;;;;5041904;28;20088;-69
2023/09/05 06:40:23;;;;;;;5.63;2.67;;;;;;;;;;5016347;28;20123;-68
2023/09/05 06:42:49;;;;;;;6.55;3.25;;;;;;;;;;5012247;28;20121;-68
2023/09/05 06:45:15;;;;;;;5.97;2.45;;;;;;;;;;5028718;28;20136;-68
2023/09/05 06:47:41;;;;;;;10.68;2.60;;;;;;;;;;4995227;28;20144;-68
2023/09/05 06:50:10;;;;;;;5.72;2.65;;;;;;;;;;5030736;28;20053;-68
2023/09/05 06:52:36;;;;;;;8.60;2.90;;;;;;;;;;5030850;28;20041;-68
2023/09/05 06:55:02;;;;;;;9.32;2.38;;;;;;;;;;5013743;28;20076;-68
2023/09/05 06:57:31;;;;;;;6.32;2.15;;;;;;;;;;5029350;28;20033;-68
2023/09/05 06:59:57;;;;;;;7.82;2.58;;;;;;;;;;5013289;28;20040;-69
2023/09/05 07:02:23;;;;;;;11.55;2.83;;;;;;;;;;5029336;28;20033;-68
2023/09/05 07:04:50;;;;;;;10.60;2.90;;;;;;;;;;4997142;28;20037;-68
2023/09/05 07:07:17;;;;;;;8.05;2.53;;;;;;;;;;5013225;28;20125;-68
2023/09/05 07:09:42;;;;;;;12.60;5.95;;;;;;;;;;5046021;28;20124;-68
2023/09/05 07:12:08;;;;;;;11.30;2.35;;;;;;;;;;5027820;28;20053;-68
2023/09/05 07:14:34;;;;;;;8.43;2.53;;;;;;;;;;5030703;28;20453;-68
2023/09/05 07:17:00;;;;;;;9.70;2.00;;;;;;;;;;5012857;28;20029;-69
2023/09/05 07:19:26;;;;;;;8.40;2.00;;;;;;;;;;4996532;28;20240;-68
2023/09/05 07:21:53;;;;;;;12.90;2.88;;;;;;;;;;5012840;28;20471;-69
2023/09/05 07:24:19;;;;;;;4.47;1.67;;;;;;;;;;5012797;28;20039;-69
2023/09/05 07:26:45;;;;;;;2.90;1.90;;;;;;;;;;5012533;28;20450;-69
2023/09/05 07:29:12;;;;;;;4.40;2.28;;;;;;;;;;5028890;28;20132;-68
2023/09/05 07:31:41;;;;;;;6.78;2.47;;;;;;;;;;5029451;28;20045;-68
2023/09/05 07:34:08;;;;;;;7.35;2.13;;;;;;;;;;4995781;28;20148;-68
2023/09/05 07:36:35;;;;;;;3.05;1.88;;;;;;;;;;5012100;28;20041;-69
2023/09/05 07:39:03;;;;;;;5.20;2.10;;;;;;;;;;5008264;28;20050;-70
2023/09/05 07:41:30;;;;;;;5.38;1.65;;;;;;;;;;4991938;28;20057;-70
2023/09/05 07:43:57;;;;;;;5.85;1.80;;;;;;;;;;4975573;28;20061;-70
2023/09/05 07:46:23;;;;;;;4.65;1.95;;;;;;;;;;4977225;28;20053;-72
2023/09/05 07:48:49;;;;;;;5.25;1.63;;;;;;;;;;5011928;28;20095;-68
2023/09/05 07:51:15;;;;;;;20.25;3.15;;;;;;;;;;4978839;28;20046;-68
2023/09/05 07:53:46;;;;;;;6.30;1.52;;;;;;;;;;4978698;28;20061;-68
2023/09/05 07:56:12;;;;;;;6.38;1.70;;;;;;;;;;5011307;28;20025;-68
2023/09/05 07:58:38;;;;;;;7.03;1.70;;;;;;;;;;5011378;28;20059;-70
2023/09/05 08:01:09;;;;;;;3.72;1.60;;;;;;;;;;4963619;28;20152;-67
2023/09/05 08:03:36;;;;;;;3.00;1.60;;;;;;;;;;4979537;28;20038;-67
2023/09/05 08:06:06;;;;;;;4.32;1.48;;;;;;;;;;5012722;28;20415;-67
2023/09/05 08:08:31;;;;;;;5.95;1.42;;;;;;;;;;5031591;28;20511;-68
2023/09/05 08:10:57;;;;;;;7.47;1.60;;;;;;;;;;5015760;28;20053;-69
2023/09/05 08:13:23;;;;;;;5.35;1.73;;;;;;;;;;5014837;28;20037;-69
2023/09/05 08:15:50;;;;;;;11.73;7.43;;;;;;;;;;5015770;28;20127;-68
2023/09/05 08:18:17;;;;;;;3.38;1.50;;;;;;;;;;5033063;28;20044;-68
2023/09/05 08:20:43;;;;;;;4.07;1.50;;;;;;;;;;5031934;28;20110;-68
2023/09/05 08:23:11;;;;;;;3.90;1.23;;;;;;;;;;5032601;28;20471;-69
2023/09/05 08:25:37;;;;;;;4.03;1.67;;;;;;;;;;5015772;28;20460;-69
2023/09/05 08:28:03;;;;;;;5.63;1.98;;;;;;;;;;5032321;28;20041;-69
2023/09/05 08:30:29;;;;;;;3.28;1.30;;;;;;;;;;5015530;28;20139;-69
2023/09/05 08:32:55;;;;;;;5.93;1.60;;;;;;;;;;5040234;28;20029;-69
2023/09/05 08:35:21;;;;;;;3.72;1.05;;;;;;;;;;5052401;28;20063;-70
2023/09/05 08:37:47;;;;;;;6.18;1.70;;;;;;;;;;5035706;28;20458;-69
2023/09/05 08:40:15;;;;;;;2.05;1.38;;;;;;;;;;5051755;28;20041;-69
2023/09/05 08:42:44;;;;;;;6.20;1.50;;;;;;;;;;5051752;28;20064;-69
2023/09/05 08:45:15;;;;;;;4.00;1.70;;;;;;;;;;5050419;28;20058;-69
2023/09/05 08:47:41;;;;;;;3.75;1.35;;;;;;;;;;5015140;28;20056;-69
2023/09/05 08:50:08;;;;;;;2.10;1.13;;;;;;;;;;5032548;28;20120;-70
2023/09/05 08:52:36;;;;;;;2.78;1.10;;;;;;;;;;5031333;28;20045;-68
2023/09/05 08:55:03;;;;;;;2.80;1.55;;;;;;;;;;5031335;28;20369;-69
2023/09/05 08:57:31;;;;;;;4.13;1.50;;;;;;;;;;5030235;28;20483;-69
2023/09/05 08:59:57;;;;;;;3.33;1.20;;;;;;;;;;5032275;28;20099;-69
2023/09/05 09:02:23;;;;;;;3.65;1.48;;;;;;;;;;5016414;28;20746;-70
2023/09/05 09:04:52;;;;;;;4.88;1.20;;;;;;;;;;5041139;28;20048;-70
2023/09/05 09:07:19;;;;;;;5.18;1.05;;;;;;;;;;5041257;28;20044;-71
2023/09/05 09:09:46;;;;;;;4.00;1.50;;;;;;;;;;5040306;28;20052;-71
2023/09/05 09:12:11;;;;;;;5.75;1.40;;;;;;;;;;5029624;28;20044;-71
2023/09/05 09:14:37;;;;;;;5.35;1.38;;;;;;;;;;5052141;28;20091;-70
2023/09/05 09:17:04;;;;;;;4.30;1.35;;;;;;;;;;5051688;28;20047;-70
2023/09/05 09:19:30;;;;;;;5.60;1.33;;;;;;;;;;5050525;28;20033;-69
2023/09/05 09:22:01;;;;;;;9.98;1.67;;;;;;;;;;5050454;28;20048;-69
2023/09/05 09:24:30;;;;;;;3.63;1.40;;;;;;;;;;5050599;28;20032;-69
2023/09/05 09:26:56;;;;;;;6.47;2.42;;;;;;;;;;5034051;28;20075;-69
2023/09/05 09:29:22;;;;;;;4.35;1.40;;;;;;;;;;5051697;28;20079;-69
2023/09/05 09:31:47;;;;;;;6.78;1.80;;;;;;;;;;5051273;28;20131;-68
2023/09/05 09:34:18;;;;;;;9.82;2.75;;;;;;;;;;5050555;28;20057;-68
2023/09/05 09:36:50;;;;;;;7.13;2.92;;;;;;;;;;5051565;28;20527;-69
2023/09/05 09:39:17;;;;;;;9.60;2.28;;;;;;;;;;5050301;28;20033;-68
2023/09/05 09:41:46;;;;;;;6.80;1.92;;;;;;;;;;5050642;28;20044;-69
2023/09/05 09:44:12;;;;;;;;;;;;;;;;;;5051221;28;20039;-69
2023/09/05 09:46:38;;;;;;;4.13;1.90;;;;;;;;;;5051634;28;20343;-69
2023/09/05 09:49:05;;;;;;;10.90;1.80;;;;;;;;;;5050547;28;20044;-68
2023/09/05 09:51:33;;;;;;;4.32;1.70;;;;;;;;;;5051082;28;20135;-70
2023/09/05 09:54:00;;;;;;;3.40;1.50;;;;;;;;;;5050132;28;20064;-68
2023/09/05 09:56:26;;;;;;;8.00;1.70;;;;;;;;;;5050003;28;20049;-68
2023/09/05 09:58:56;;;;;;;4.50;1.40;;;;;;;;;;5051110;28;20032;-68
2023/09/05 10:01:23;;;;;;;7.13;1.58;;;;;;;;;;5050949;28;20040;-68
2023/09/05 10:03:49;;;;;;;5.70;1.55;;;;;;;;;;5050784;28;20044;-68
2023/09/05 10:06:15;;;;;;;6.18;1.73;;;;;;;;;;5050919;28;20055;-68
2023/09/05 10:08:41;;;;;;;6.28;1.80;;;;;;;;;;5048442;28;20383;-68
2023/09/05 10:11:09;;;;;;;3.85;1.80;;;;;;;;;;5032431;28;20452;-70
2023/09/05 10:13:35;;;;;;;4.88;1.67;;;;;;;;;;4998239;28;20033;-66
2023/09/05 10:16:01;;;;;;;4.57;2.00;;;;;;;;;;5029895;28;20510;-66
2023/09/05 10:18:38;;;;;;;6.45;1.90;;;;;;;;;;5030280;28;20025;-68
2023/09/05 10:21:04;;;;;;;7.63;1.65;;;;;;;;;;5031201;28;20097;-67
2023/09/05 10:23:31;;;;;;;8.43;1.73;;;;;;;;;;5030404;28;20361;-67
2023/09/05 10:25:58;;;;;;;6.03;1.52;;;;;;;;;;5030848;28;20130;-66
2023/09/05 10:28:30;;;;;;;6.53;1.80;;;;;;;;;;4997750;28;20436;-67
2023/09/05 10:31:04;;;;;;;4.15;1.70;;;;;;;;;;5033729;28;20376;-67
2023/09/05 10:33:36;;;;;;;7.88;1.58;;;;;;;;;;5031064;28;20317;-67
2023/09/05 10:36:02;;;;;;;2.97;1.40;;;;;;;;;;5029017;28;20509;-65
2023/09/05 10:38:30;;;;;;;2.95;1.23;;;;;;;;;;5049396;28;20576;-67
2023/09/05 10:40:55;;;;;;;4.72;1.50;;;;;;;;;;5016401;28;20056;-67
2023/09/05 10:43:22;;;;;;;2.88;1.33;;;;;;;;;;5048898;28;20482;-67
2023/09/05 10:45:56;;;;;;;4.95;1.38;;;;;;;;;;5038550;28;20037;-68
2023/09/05 10:48:45;;;;;;;17.20;2.25;;;;;;;;;;5026887;28;20069;-67
2023/09/05 10:51:11;;;;;;;;;;;;;;;;;;5014495;28;20053;-68
2023/09/05 10:53:37;;;;;;;2.78;1.30;;;;;;;;;;5029725;28;19913;-67
2023/09/05 10:56:03;;;;;;;5.20;1.60;;;;;;;;;;5017062;28;20025;-68
2023/09/05 10:58:35;;;;;;;2.58;1.10;;;;;;;;;;5038166;28;20353;-69
2023/09/05 11:01:01;;;;;;;6.00;1.48;;;;;;;;;;5022113;28;20069;-67
2023/09/05 11:03:36;;;;;;;4.22;1.48;;;;;;;;;;5039016;28;20489;-67
2023/09/05 11:06:12;;;;;;;4.22;1.48;;;;;;;;;;5024505;28;20030;-68
2023/09/05 11:08:38;;;;;;;6.32;1.60;;;;;;;;;;5038064;28;20033;-70
2023/09/05 11:11:04;;;;;;;4.13;1.83;;;;;;;;;;5038232;28;20060;-70
2023/09/05 11:13:31;;;;;;;3.35;1.20;;;;;;;;;;5037495;28;20060;-67
2023/09/05 11:15:58;;;;;;;6.75;2.25;;;;;;;;;;5040125;28;20190;-66
2023/09/05 11:18:23;;;;;;;5.40;2.00;;;;;;;;;;5038554;28;20095;-67
2023/09/05 11:20:50;;;;;;;4.63;1.77;;;;;;;;;;5040188;28;20568;-68
2023/09/05 11:23:17;;;;;;;4.68;1.73;;;;;;;;;;5043890;28;20025;-67
2023/09/05 11:25:53;;;;;;;3.53;1.60;;;;;;;;;;5016277;28;20040;-68
2023/09/05 11:28:20;;;;;;;1.95;1.45;;;;;;;;;;5041692;28;20037;-67
2023/09/05 11:30:46;;;;;;;4.22;1.83;;;;;;;;;;5043620;28;20034;-68
2023/09/05 11:33:15;;;;;;;4.15;1.73;;;;;;;;;;5042322;28;20044;-68
2023/09/05 11:35:45;;;;;;;6.03;2.00;;;;;;;;;;5043588;28;20040;-66
2023/09/05 11:38:14;;;;;;;4.50;2.00;;;;;;;;;;5027237;28;20044;-66
2023/09/05 11:40:48;;;;;;;6.05;1.98;;;;;;;;;;5006853;28;20033;-68
2023/09/05 11:43:14;;;;;;;8.88;1.98;;;;;;;;;;5036965;28;20048;-66
2023/09/05 11:45:43;;;;;;;1.98;1.67;;;;;;;;;;5016473;28;20085;-66
2023/09/05 11:48:14;;;;;;;6.85;2.10;;;;;;;;;;5033150;28;20057;-71
2023/09/05 11:50:40;;;;;;;6.70;2.30;;;;;;;;;;5034088;28;20103;-65
2023/09/05 11:53:10;;;;;;;4.68;1.90;;;;;;;;;;5033670;28;20502;-66
2023/09/05 11:55:36;;;;;;;6.30;2.40;;;;;;;;;;5034128;28;20393;-68
2023/09/05 11:58:05;;;;;;;4.90;2.30;;;;;;;;;;5051850;28;20049;-69
2023/09/05 12:00:32;;;;;;;3.03;2.20;;;;;;;;;;5035406;28;20080;-69
2023/09/05 12:03:00;;;;;;;4.05;2.47;;;;;;;;;;5018685;28;20917;-67
2023/09/05 12:05:26;;;;;;;7.32;2.58;;;;;;;;;;5003883;28;20052;-67
2023/09/05 12:07:52;;;;;;;5.47;2.83;;;;;;;;;;5029374;28;20110;-67
2023/09/05 12:10:18;;;;;;;6.15;2.75;;;;;;;;;;5034733;28;20041;-68
2023/09/05 12:12:58;;;;;;;6.80;2.28;;;;;;;;;;5034569;28;20446;-68
2023/09/05 12:15:36;;;;;;;6.32;2.50;;;;;;;;;;5017782;28;20036;-68
2023/09/05 12:18:04;;;;;;;4.35;2.47;;;;;;;;;;5034504;28;20590;-67
2023/09/05 12:20:30;;;;;;;4.05;2.30;;;;;;;;;;5051242;28;20043;-66
2023/09/05 12:22:55;;;;;;;5.50;2.97;;;;;;;;;;5050739;28;20056;-67
2023/09/05 12:25:24;;;;;;;4.18;2.45;;;;;;;;;;5017450;28;20031;-70
2023/09/05 12:27:51;;;;;;;5.65;2.85;;;;;;;;;;5034208;28;20037;-71
2023/09/05 12:30:24;;;;;;;5.07;2.13;;;;;;;;;;5032273;28;20037;-72
2023/09/05 12:32:51;;;;;;;6.07;2.50;;;;;;;;;;5015927;28;20041;-67
2023/09/05 12:35:16;;;;;;;7.57;2.70;;;;;;;;;;5032478;28;20076;-66
2023/09/05 12:37:42;;;;;;;4.75;2.33;;;;;;;;;;5032462;28;20077;-68
2023/09/05 12:40:08;;;;;;;4.47;2.78;;;;;;;;;;5032505;28;20037;-69
2023/09/05 12:42:35;;;;;;;3.30;2.30;;;;;;;;;;5033772;28;20057;-68
2023/09/05 12:45:00;;;;;;;4.18;2.58;;;;;;;;;;5016061;28;20048;-68
2023/09/05 12:47:31;;;;;;;5.35;2.40;;;;;;;;;;5032039;28;20057;-70
2023/09/05 12:49:58;;;;;;;3.83;2.70;;;;;;;;;;5015640;28;20124;-66
2023/09/05 12:52:24;;;;;;;3.10;2.47;;;;;;;;;;5032238;28;20072;-68
2023/09/05 12:54:50;;;;;;;6.38;2.58;;;;;;;;;;5015308;28;20042;-67
2023/09/05 12:57:16;;;;;;;4.88;2.45;;;;;;;;;;5031454;28;20471;-67
2023/09/05 12:59:42;;;;;;;7.03;2.78;;;;;;;;;;5031419;28;20042;-67
2023/09/05 13:02:08;;;;;;;3.10;2.80;;;;;;;;;;5029953;28;20118;-68
2023/09/05 13:04:33;;;;;;;3.40;2.53;;;;;;;;;;4997082;28;20037;-69
2023/09/05 13:06:59;;;;;;;5.85;2.50;;;;;;;;;;5014683;28;20029;-66
2023/09/05 13:09:25;;;;;;;11.75;3.17;;;;;;;;;;5031712;28;20439;-67
2023/09/05 13:11:51;;;;;;;5.97;2.55;;;;;;;;;;5030481;28;20064;-66
2023/09/05 13:14:17;;;;;;;3.88;2.63;;;;;;;;;;5031720;28;20507;-67
2023/09/05 13:16:43;;;;;;;5.32;2.78;;;;;;;;;;5031539;28;20139;-67
2023/09/05 13:19:09;;;;;;;4.00;2.60;;;;;;;;;;5031589;28;20124;-67
2023/09/05 13:21:36;;;;;;;7.05;2.88;;;;;;;;;;5032678;28;20044;-67
2023/09/05 13:24:02;;;;;;;6.70;2.92;;;;;;;;;;5031826;28;20175;-68
2023/09/05 13:26:28;;;;;;;5.75;3.10;;;;;;;;;;5033055;28;20121;-66
2023/09/05 13:28:54;;;;;;;3.88;2.55;;;;;;;;;;5031788;28;20242;-67
2023/09/05 13:31:20;;;;;;;6.45;2.85;;;;;;;;;;5030337;28;20460;-68
2023/09/05 13:33:46;;;;;;;3.33;2.33;;;;;;;;;;5031432;28;20037;-67
2023/09/05 13:36:11;;;;;;;4.03;2.80;;;;;;;;;;5014100;28;20044;-65
2023/09/05 13:38:37;;;;;;;4.95;2.92;;;;;;;;;;5031072;28;20053;-67
2023/09/05 13:41:02;;;;;;;6.15;2.90;;;;;;;;;;5030690;28;20040;-65
2023/09/05 13:43:28;;;;;;;5.10;2.90;;;;;;;;;;5032035;28;20293;-66
2023/09/05 13:45:53;;;;;;;6.82;3.08;;;;;;;;;;5031886;28;20033;-67
2023/09/05 13:48:20;;;;;;;4.30;2.50;;;;;;;;;;5052592;28;20041;-66
2023/09/05 13:50:46;;;;;;;6.50;2.75;;;;;;;;;;5034154;28;20039;-66
2023/09/05 13:53:12;;;;;;;5.05;3.50;;;;;;;;;;5050536;28;20048;-66
2023/09/05 13:55:38;;;;;;;5.40;4.10;;;;;;;;;;5033831;28;20033;-66
2023/09/05 13:58:04;;;;;;;6.43;3.45;;;;;;;;;;5050559;28;20098;-65
2023/09/05 14:00:30;;;;;;;5.78;2.63;;;;;;;;;;5048940;28;20048;-65
2023/09/05 14:02:55;;;;;;;9.05;3.20;;;;;;;;;;5016125;28;20051;-65
2023/09/05 14:05:21;;;;;;;7.10;3.17;;;;;;;;;;5032788;28;20041;-65
2023/09/05 14:07:47;;;;;;;4.47;2.60;;;;;;;;;;5048847;28;20479;-66
2023/09/05 14:10:14;;;;;;;6.65;2.85;;;;;;;;;;4999544;28;20047;-66
2023/09/05 14:12:40;;;;;;;7.05;2.95;;;;;;;;;;5015177;28;20088;-66
2023/09/05 14:15:06;;;;;;;5.78;2.58;;;;;;;;;;5032644;28;20077;-66
2023/09/05 14:17:32;;;;;;;8.73;2.78;;;;;;;;;;5032323;28;20436;-67
2023/09/05 14:19:59;;;;;;;6.68;2.85;;;;;;;;;;5015922;28;20996;-66
2023/09/05 14:22:24;;;;;;;6.43;2.78;;;;;;;;;;5031957;28;20042;-66
2023/09/05 14:24:50;;;;;;;4.88;2.80;;;;;;;;;;5015662;28;20047;-68
2023/09/05 14:27:18;;;;;;;4.05;2.47;;;;;;;;;;5048764;28;20032;-68
2023/09/05 14:29:46;;;;;;;7.85;3.42;;;;;;;;;;4999295;28;20040;-66
2023/09/05 14:32:11;;;;;;;11.90;2.88;;;;;;;;;;5031991;28;20511;-66
2023/09/05 14:34:38;;;;;;;26.80;4.22;;;;;;;;;;5019291;28;20119;-67
2023/09/05 14:37:03;;;;;;;19.40;3.45;;;;;;;;;;5065899;28;20059;-67